createdAt,value
2023-03-22T00:01:44.254Z,99.90
2023-03-22T00:04:13.444Z,99.90
2023-03-22T00:06:44.099Z,99.90
2023-03-22T00:09:14.547Z,99.90
2023-03-22T00:11:43.753Z,99.90
2023-03-22T00:14:13.088Z,99.90
2023-03-22T00:16:42.004Z,99.90
2023-03-22T00:19:11.683Z,99.90
2023-03-22T00:21:40.678Z,99.90
2023-03-22T00:24:10.934Z,99.90
2023-03-22T00:26:42.264Z,99.90
2023-03-22T00:29:11.372Z,99.90
2023-03-22T00:31:41.511Z,99.90
2023-03-22T00:34:10.733Z,99.90
2023-03-22T00:36:41.398Z,99.90
2023-03-22T00:39:10.351Z,99.90
2023-03-22T00:41:40.869Z,99.90
2023-03-22T00:44:11.158Z,99.90
2023-03-22T00:46:40.405Z,99.90
2023-03-22T00:49:10.061Z,99.90
2023-03-22T00:51:39.179Z,99.90
2023-03-22T00:54:08.623Z,99.90
2023-03-22T00:56:37.952Z,99.90
2023-03-22T00:59:15.501Z,99.90
2023-03-22T01:01:45.729Z,99.90
2023-03-22T01:04:18.671Z,99.90
2023-03-22T01:06:48.415Z,99.90
2023-03-22T01:09:17.748Z,99.90
2023-03-22T01:11:48.361Z,99.90
2023-03-22T01:14:19.915Z,99.90
2023-03-22T01:16:49.652Z,99.90
2023-03-22T01:19:18.749Z,99.90
2023-03-22T01:21:47.794Z,99.90
2023-03-22T01:24:17.361Z,99.90
2023-03-22T01:26:46.828Z,99.90
2023-03-22T01:29:16.045Z,99.90
2023-03-22T01:31:47.361Z,99.90
2023-03-22T01:34:16.356Z,99.90
2023-03-22T01:36:45.569Z,99.90
2023-03-22T01:39:15.374Z,99.90
2023-03-22T01:41:47.238Z,99.90
2023-03-22T01:44:21.141Z,99.90
2023-03-22T01:46:53.826Z,99.90
2023-03-22T01:49:27.622Z,99.90
2023-03-22T01:51:59.317Z,99.90
2023-03-22T01:54:56.193Z,99.90
2023-03-22T01:57:34.186Z,99.90
2023-03-22T02:00:04.816Z,99.90
2023-03-22T02:02:53.328Z,99.90
2023-03-22T02:05:30.816Z,99.90
2023-03-22T02:08:02.905Z,99.90
2023-03-22T02:10:40.079Z,99.90
2023-03-22T02:13:30.520Z,99.90
2023-03-22T02:16:33.146Z,99.90
2023-03-22T02:19:42.860Z,99.90
2023-03-22T02:22:40.078Z,99.90
2023-03-22T02:25:29.476Z,99.90
2023-03-22T02:28:30.263Z,99.90
2023-03-22T02:31:18.578Z,99.90
2023-03-22T02:34:16.292Z,99.90
2023-03-22T02:37:22.183Z,99.90
2023-03-22T02:39:57.533Z,99.90
2023-03-22T02:42:38.545Z,99.90
2023-03-22T02:45:16.068Z,99.90
2023-03-22T02:47:55.543Z,99.90
2023-03-22T02:50:30.667Z,99.90
2023-03-22T02:53:06.730Z,99.90
2023-03-22T02:55:42.820Z,99.90
2023-03-22T02:58:17.444Z,99.90
2023-03-22T03:00:50.275Z,99.90
2023-03-22T03:03:20.489Z,99.90
2023-03-22T03:05:56.545Z,99.90
2023-03-22T03:08:27.763Z,99.90
2023-03-22T03:10:59.207Z,99.90
2023-03-22T03:13:29.812Z,99.90
2023-03-22T03:16:02.255Z,99.90
2023-03-22T03:18:45.000Z,99.90
2023-03-22T03:21:30.767Z,99.90
2023-03-22T03:24:10.664Z,99.90
2023-03-22T03:26:50.954Z,99.90
2023-03-22T03:29:29.703Z,99.90
2023-03-22T03:32:06.993Z,99.90
2023-03-22T03:34:46.122Z,99.90
2023-03-22T03:37:19.826Z,99.90
2023-03-22T03:39:54.229Z,99.90
2023-03-22T03:42:28.574Z,99.90
2023-03-22T03:44:59.111Z,99.90
2023-03-22T03:47:30.325Z,99.90
2023-03-22T03:49:59.658Z,99.90
2023-03-22T03:52:30.069Z,99.90
2023-03-22T03:54:59.119Z,99.90
2023-03-22T03:57:35.300Z,99.90
2023-03-22T04:00:05.469Z,99.90
2023-03-22T04:02:43.125Z,99.90
2023-03-22T04:05:24.409Z,99.90
2023-03-22T04:07:55.465Z,99.90
2023-03-22T04:10:25.156Z,99.90
2023-03-22T04:12:56.098Z,99.90
2023-03-22T04:15:26.017Z,99.90
2023-03-22T04:17:58.500Z,99.90
2023-03-22T04:20:32.040Z,99.90
2023-03-22T04:23:02.696Z,99.90
2023-03-22T04:25:34.281Z,99.90
2023-03-22T04:28:11.299Z,99.90
2023-03-22T04:30:40.903Z,99.90
2023-03-22T04:33:28.193Z,99.90
2023-03-22T04:36:16.392Z,99.90
2023-03-22T04:39:12.780Z,99.90
2023-03-22T04:41:46.074Z,99.90
2023-03-22T04:44:16.919Z,99.90
2023-03-22T04:46:51.186Z,99.90
2023-03-22T04:49:20.820Z,99.90
2023-03-22T04:51:49.638Z,99.90
2023-03-22T04:54:28.708Z,99.90
2023-03-22T04:56:58.249Z,99.90
2023-03-22T04:59:31.249Z,99.90
2023-03-22T05:02:01.918Z,99.90
2023-03-22T05:04:38.069Z,99.90
2023-03-22T05:07:15.628Z,99.90
2023-03-22T05:09:51.079Z,99.90
2023-03-22T05:12:20.521Z,99.90
2023-03-22T05:15:13.747Z,99.90
2023-03-22T05:17:42.933Z,99.90
2023-03-22T05:20:14.189Z,99.90
2023-03-22T05:22:46.334Z,99.90
2023-03-22T05:25:16.577Z,99.90
2023-03-22T05:27:50.690Z,99.90
2023-03-22T05:30:36.452Z,99.90
2023-03-22T05:33:35.138Z,99.90
2023-03-22T05:36:06.334Z,99.90
2023-03-22T05:38:42.151Z,99.90
2023-03-22T05:41:11.686Z,99.90
2023-03-22T05:43:40.924Z,99.90
2023-03-22T05:46:14.240Z,99.90
2023-03-22T05:48:52.420Z,99.90
2023-03-22T05:51:21.517Z,99.90
2023-03-22T05:53:54.504Z,99.90
2023-03-22T05:56:30.565Z,99.90
2023-03-22T05:59:07.361Z,99.90
2023-03-22T06:01:39.622Z,99.90
2023-03-22T06:04:35.073Z,99.90
2023-03-22T06:07:10.690Z,99.90
2023-03-22T06:09:58.269Z,99.90
2023-03-22T06:12:31.912Z,99.90
2023-03-22T06:15:09.575Z,99.90
2023-03-22T06:18:15.803Z,99.90
2023-03-22T06:20:48.909Z,99.90
2023-03-22T06:23:23.360Z,99.90
2023-03-22T06:25:52.646Z,99.90
2023-03-22T06:28:22.017Z,99.90
2023-03-22T06:30:53.553Z,99.90
2023-03-22T06:33:42.736Z,99.90
2023-03-22T06:36:24.304Z,99.90
2023-03-22T06:39:26.244Z,99.90
2023-03-22T06:41:56.903Z,99.90
2023-03-22T06:44:26.282Z,99.90
2023-03-22T06:47:07.871Z,99.90
2023-03-22T06:49:55.561Z,99.90
2023-03-22T06:52:29.479Z,99.90
2023-03-22T06:54:59.693Z,99.90
2023-03-22T06:57:29.091Z,99.90
2023-03-22T06:59:58.628Z,99.90
2023-03-22T07:02:27.709Z,99.90
2023-03-22T07:05:16.895Z,99.90
2023-03-22T07:07:46.510Z,99.90
2023-03-22T07:10:15.814Z,99.90
2023-03-22T07:12:46.204Z,99.90
2023-03-22T07:15:26.088Z,99.90
2023-03-22T07:18:08.885Z,99.90
2023-03-22T07:20:44.405Z,99.90
2023-03-22T07:23:21.656Z,99.90
2023-03-22T07:25:56.320Z,99.90
2023-03-22T07:28:32.920Z,99.90
2023-03-22T07:31:05.644Z,99.90
2023-03-22T07:33:46.506Z,99.90
2023-03-22T07:36:17.435Z,99.90
2023-03-22T07:38:47.136Z,99.90
2023-03-22T07:41:24.761Z,99.90
2023-03-22T07:44:16.683Z,99.90
2023-03-22T07:46:54.772Z,99.90
2023-03-22T07:49:28.854Z,99.90
2023-03-22T07:52:07.494Z,99.90
2023-03-22T07:54:38.081Z,99.90
2023-03-22T07:57:17.228Z,99.90
2023-03-22T07:59:52.345Z,99.90
2023-03-22T08:02:21.745Z,99.90
2023-03-22T08:04:56.683Z,99.90
2023-03-22T08:07:47.515Z,99.90
2023-03-22T08:10:17.114Z,99.90
2023-03-22T08:12:46.523Z,99.90
2023-03-22T08:15:23.598Z,99.90
2023-03-22T08:17:53.499Z,99.90
2023-03-22T08:20:34.824Z,99.90
2023-03-22T08:23:14.619Z,99.90
2023-03-22T08:26:16.546Z,99.90
2023-03-22T08:28:45.852Z,99.90
2023-03-22T08:31:16.062Z,99.90
2023-03-22T08:33:47.403Z,99.90
2023-03-22T08:36:19.499Z,99.90
2023-03-22T08:38:58.487Z,99.90
2023-03-22T08:41:41.053Z,99.90
2023-03-22T08:44:10.621Z,99.90
2023-03-22T08:46:40.159Z,99.90
2023-03-22T08:49:10.782Z,99.90
2023-03-22T08:52:07.004Z,97.80
2023-03-22T08:54:54.953Z,92.40
2023-03-22T08:57:43.044Z,91.80
2023-03-22T09:00:47.647Z,92.30
2023-03-22T09:03:40.112Z,93.60
2023-03-22T09:06:11.100Z,92.10
2023-03-22T09:08:43.249Z,92.50
2023-03-22T09:11:18.163Z,94.10
2023-03-22T09:13:54.723Z,91.50
2023-03-22T09:16:24.424Z,87.80
2023-03-22T09:18:53.637Z,89.30
2023-03-22T09:21:24.464Z,89.60
2023-03-22T09:24:11.064Z,87.50
2023-03-22T09:26:50.002Z,80.30
2023-03-22T09:29:21.275Z,73.40
2023-03-22T09:31:50.919Z,73.50
2023-03-22T09:34:24.158Z,73.10
2023-03-22T09:36:54.912Z,73.80
2023-03-22T09:39:29.226Z,68.00
2023-03-22T09:42:06.221Z,68.80
2023-03-22T09:44:38.496Z,64.20
2023-03-22T09:47:18.253Z,61.40
2023-03-22T09:49:53.676Z,63.90
2023-03-22T09:52:23.468Z,57.10
2023-03-22T09:54:53.426Z,57.90
2023-03-22T09:57:34.063Z,60.50
2023-03-22T10:00:14.942Z,61.90
2023-03-22T10:02:54.640Z,61.90
2023-03-22T10:05:31.321Z,62.90
2023-03-22T10:08:34.964Z,60.60
2023-03-22T10:11:04.695Z,58.50
2023-03-22T10:13:42.153Z,61.30
2023-03-22T10:16:18.609Z,64.10
2023-03-22T10:18:53.450Z,62.00
2023-03-22T10:21:23.198Z,64.60
2023-03-22T10:23:56.956Z,64.20
2023-03-22T10:26:31.173Z,64.50
2023-03-22T10:29:04.221Z,63.80
2023-03-22T10:31:35.570Z,63.40
2023-03-22T10:34:07.958Z,63.80
2023-03-22T10:36:40.157Z,65.50
2023-03-22T10:39:17.169Z,65.70
2023-03-22T10:41:47.890Z,64.30
2023-03-22T10:44:21.243Z,62.20
2023-03-22T10:46:52.666Z,62.20
2023-03-22T10:49:26.569Z,60.00
2023-03-22T10:52:00.338Z,62.30
2023-03-22T10:54:31.238Z,65.10
2023-03-22T10:57:00.228Z,65.10
2023-03-22T10:59:49.193Z,66.30
2023-03-22T11:02:21.738Z,63.10
2023-03-22T11:04:53.213Z,62.20
2023-03-22T11:07:35.439Z,65.40
2023-03-22T11:10:24.007Z,65.70
2023-03-22T11:12:56.706Z,64.40
2023-03-22T11:15:30.805Z,62.10
2023-03-22T11:18:02.584Z,59.60
2023-03-22T11:20:32.391Z,57.90
2023-03-22T11:23:05.495Z,56.50
2023-03-22T11:25:37.899Z,56.00
2023-03-22T11:28:17.305Z,58.20
2023-03-22T11:31:01.914Z,59.30
2023-03-22T11:33:32.103Z,58.30
2023-03-22T11:36:02.808Z,59.00
2023-03-22T11:38:38.461Z,57.00
2023-03-22T11:41:11.402Z,60.30
2023-03-22T11:43:44.695Z,60.80
2023-03-22T11:46:17.771Z,60.60
2023-03-22T11:48:48.449Z,60.10
2023-03-22T11:51:20.468Z,64.10
2023-03-22T11:53:50.809Z,62.20
2023-03-22T11:56:29.370Z,65.20
2023-03-22T11:59:01.464Z,64.30
2023-03-22T12:01:38.308Z,63.80
2023-03-22T12:04:13.534Z,65.60
2023-03-22T12:06:43.480Z,64.90
2023-03-22T12:09:26.151Z,65.10
2023-03-22T12:12:04.431Z,64.80
2023-03-22T12:14:41.029Z,65.70
2023-03-22T12:17:18.120Z,66.40
2023-03-22T12:20:06.391Z,66.00
2023-03-22T12:22:37.408Z,63.90
2023-03-22T12:25:13.439Z,63.70
2023-03-22T12:27:46.875Z,62.80
2023-03-22T12:30:19.764Z,60.60
2023-03-22T12:32:53.922Z,61.50
2023-03-22T12:35:26.743Z,61.90
2023-03-22T12:37:59.988Z,61.40
2023-03-22T12:40:33.267Z,60.80
2023-03-22T12:43:09.426Z,60.70
2023-03-22T12:45:43.005Z,62.40
2023-03-22T12:48:18.712Z,61.90
2023-03-22T12:50:52.763Z,62.50
2023-03-22T12:53:23.091Z,60.20
2023-03-22T12:55:53.104Z,63.20
2023-03-22T12:58:25.762Z,60.40
2023-03-22T13:00:58.615Z,59.50
2023-03-22T13:03:32.892Z,58.00
2023-03-22T13:06:06.046Z,58.50
2023-03-22T13:09:13.654Z,55.50
2023-03-22T13:11:43.177Z,52.50
2023-03-22T13:14:19.889Z,54.70
2023-03-22T13:17:00.573Z,54.60
2023-03-22T13:19:36.633Z,52.60
2023-03-22T13:22:27.733Z,56.40
2023-03-22T13:25:02.402Z,55.20
2023-03-22T13:27:45.424Z,56.30
2023-03-22T13:30:24.436Z,52.20
2023-03-22T13:32:56.838Z,50.90
2023-03-22T13:35:29.855Z,50.90
2023-03-22T13:38:05.103Z,51.00
2023-03-22T13:40:38.353Z,51.00
2023-03-22T13:43:22.517Z,51.20
2023-03-22T13:46:13.371Z,49.40
2023-03-22T13:48:54.621Z,52.10
2023-03-22T13:51:32.826Z,53.90
2023-03-22T13:54:09.002Z,56.50
2023-03-22T13:56:57.576Z,57.80
2023-03-22T13:59:31.481Z,58.80
2023-03-22T14:02:05.860Z,61.20
2023-03-22T14:04:41.383Z,61.90
2023-03-22T14:07:22.876Z,60.70
2023-03-22T14:09:54.799Z,59.80
2023-03-22T14:12:30.748Z,59.10
2023-03-22T14:15:03.187Z,59.40
2023-03-22T14:17:37.387Z,61.40
2023-03-22T14:20:10.763Z,63.00
